Time;durP1;ratioP1;P1;durP2;ratioP2;P2;SDS_P1;SDS_P2;PMS_P1;PMS_P2;Temp;Humidity;BMP_temperature;BMP_pressure;BME280_temperature;BME280_humidity;BME280_pressure;Samples;Min_cycle;Max_cycle;Signal;HPM_P1;HPM_P2
2022/03/23 00:00:31;;;;;;;131.23;60.90;;;4.70;99.90;;;;;;10191948;29;20293;-81
2022/03/23 00:05:53;;;;;;;121.73;58.53;;;4.60;99.90;;;;;;10223028;29;20274;-80
2022/03/23 00:11:17;;;;;;;129.83;60.40;;;4.60;99.90;;;;;;10189754;29;20209;-80
2022/03/23 00:16:39;;;;;;;135.87;61.53;;;4.30;99.90;;;;;;10167641;29;20317;-80
2022/03/23 00:22:02;;;;;;;149.80;64.20;;;4.40;99.90;;;;;;10218040;29;20211;-80
2022/03/23 00:27:24;;;;;;;150.83;67.37;;;4.40;99.90;;;;;;10181342;29;20222;-80
2022/03/23 00:32:46;;;;;;;131.87;63.13;;;4.30;99.90;;;;;;10153533;29;20285;-79
2022/03/23 00:38:09;;;;;;;153.47;66.73;;;4.30;99.90;;;;;;10175002;29;20304;-79
2022/03/23 00:43:31;;;;;;;141.63;64.57;;;4.20;99.90;;;;;;10205925;29;20229;-79
2022/03/23 00:48:54;;;;;;;140.80;62.80;;;4.10;99.90;;;;;;10194165;29;20212;-79
2022/03/23 00:54:17;;;;;;;133.20;63.07;;;4.10;99.90;;;;;;10166652;29;20229;-79
2022/03/23 00:59:38;;;;;;;131.10;60.47;;;4.20;99.90;;;;;;10184228;29;20263;-80
2022/03/23 01:05:02;;;;;;;132.33;59.37;;;4.20;99.90;;;;;;10205249;29;20289;-80
2022/03/23 01:10:24;;;;;;;127.33;56.57;;;4.00;99.90;;;;;;10165897;29;20205;-80
2022/03/23 01:15:46;;;;;;;129.80;57.13;;;3.80;99.90;;;;;;10185155;29;20473;-79
2022/03/23 01:21:08;;;;;;;131.27;57.70;;;3.70;99.90;;;;;;10169951;29;20423;-81
2022/03/23 01:26:30;;;;;;;114.80;54.43;;;3.70;99.90;;;;;;10194000;29;20583;-80
2022/03/23 01:31:52;;;;;;;131.03;57.10;;;3.60;99.90;;;;;;10197288;29;20207;-80
2022/03/23 01:37:16;;;;;;;130.20;55.60;;;3.50;99.90;;;;;;10211860;29;20315;-79
2022/03/23 01:42:39;;;;;;;125.67;55.77;;;3.50;99.90;;;;;;10173377;29;20209;-80
2022/03/23 01:48:01;;;;;;;109.10;53.27;;;3.50;99.90;;;;;;10192239;29;20284;-80
2022/03/23 01:53:23;;;;;;;111.93;54.10;;;3.40;99.90;;;;;;10212137;29;20264;-80
2022/03/23 01:58:46;;;;;;;107.57;53.27;;;3.40;99.90;;;;;;10201675;29;20283;-81
2022/03/23 02:04:08;;;;;;;116.13;57.63;;;3.30;99.90;;;;;;10211642;29;20286;-81
2022/03/23 02:09:31;;;;;;;109.97;60.67;;;3.40;99.90;;;;;;10197686;29;20239;-79
2022/03/23 02:15:08;;;;;;;114.93;59.77;;;3.30;99.90;;;;;;10160029;29;20233;-80
2022/03/23 02:20:31;;;;;;;127.57;63.83;;;3.30;99.90;;;;;;10202030;29;20239;-80
2022/03/23 02:26:01;;;;;;;118.83;57.90;;;3.30;99.90;;;;;;10164053;29;20779;-81
2022/03/23 02:31:22;;;;;;;111.07;56.43;;;3.20;99.90;;;;;;10158542;29;20209;-81
2022/03/23 02:36:44;;;;;;;119.90;56.10;;;3.20;99.90;;;;;;10170591;29;20247;-81
2022/03/23 02:42:06;;;;;;;122.93;57.90;;;3.10;99.90;;;;;;10189912;29;20212;-79
2022/03/23 02:47:28;;;;;;;125.57;56.57;;;3.00;99.90;;;;;;10225994;29;20219;-81
2022/03/23 03:04:39;;;;;;;115.20;57.23;;;2.90;99.90;;;;;;10209021;29;20208;-80
2022/03/23 03:10:01;;;;;;;113.17;55.47;;;2.80;99.90;;;;;;10147090;29;20216;-80
2022/03/23 03:15:24;;;;;;;108.53;55.33;;;2.70;99.90;;;;;;10146841;29;20615;-80
2022/03/23 03:20:47;;;;;;;113.63;54.80;;;2.80;99.90;;;;;;10178427;29;20272;-81
2022/03/23 03:26:10;;;;;;;114.10;56.17;;;2.80;99.90;;;;;;10206464;29;20215;-80
2022/03/23 03:31:33;;;;;;;109.50;58.60;;;2.70;99.90;;;;;;10184931;29;20223;-81
2022/03/23 03:36:55;;;;;;;122.07;60.53;;;2.60;99.90;;;;;;10184992;29;20236;-80
2022/03/23 03:42:18;;;;;;;116.90;59.03;;;2.60;99.90;;;;;;10166178;29;20238;-80
2022/03/23 03:47:40;;;;;;;128.70;61.90;;;2.50;99.90;;;;;;10154972;29;20231;-80
2022/03/23 03:53:02;;;;;;;128.87;62.40;;;2.30;99.90;;;;;;10171389;29;20214;-80
2022/03/23 03:58:24;;;;;;;131.63;65.43;;;2.30;99.90;;;;;;10193762;29;20530;-80
2022/03/23 04:03:46;;;;;;;137.57;66.20;;;2.20;99.90;;;;;;10154962;29;20214;-81
2022/03/23 04:09:08;;;;;;;125.07;59.73;;;2.30;99.90;;;;;;10155331;29;20404;-80
2022/03/23 04:14:30;;;;;;;125.47;59.90;;;2.30;99.90;;;;;;10167604;29;20235;-81
2022/03/23 04:19:52;;;;;;;135.10;65.53;;;2.20;99.90;;;;;;10183437;29;20398;-81
2022/03/23 04:25:15;;;;;;;131.53;65.03;;;2.30;99.90;;;;;;10154231;29;20219;-81
2022/03/23 04:30:37;;;;;;;137.03;66.37;;;2.10;99.90;;;;;;10167021;29;20223;-80
2022/03/23 04:35:59;;;;;;;107.80;54.80;;;1.90;99.90;;;;;;10143665;29;20261;-81
2022/03/23 04:41:21;;;;;;;99.63;50.87;;;2.00;99.90;;;;;;10143505;29;20392;-81
2022/03/23 04:46:43;;;;;;;92.37;46.43;;;2.10;99.90;;;;;;10140557;29;20541;-80
2022/03/23 04:52:06;;;;;;;95.03;47.20;;;2.00;99.90;;;;;;10127205;29;20212;-81
2022/03/23 04:57:28;;;;;;;88.07;47.50;;;2.00;99.90;;;;;;10151894;29;20239;-81
2022/03/23 05:02:50;;;;;;;90.27;47.13;;;2.10;99.90;;;;;;10196101;29;20397;-81
2022/03/23 05:08:12;;;;;;;91.87;48.03;;;2.10;99.90;;;;;;10166627;29;20431;-82
2022/03/23 05:13:34;;;;;;;104.13;51.80;;;2.20;99.90;;;;;;10153169;29;20256;-80
2022/03/23 05:18:56;;;;;;;109.27;55.30;;;2.20;99.90;;;;;;10152950;29;20243;-81
2022/03/23 05:24:18;;;;;;;106.30;53.57;;;2.20;99.90;;;;;;10152607;29;20397;-80
2022/03/23 05:29:40;;;;;;;100.33;53.00;;;2.30;99.90;;;;;;10171086;29;20203;-80
2022/03/23 05:35:04;;;;;;;115.73;60.87;;;2.50;99.90;;;;;;10156268;29;20208;-81
2022/03/23 05:40:26;;;;;;;140.17;61.93;;;2.60;99.90;;;;;;10168381;29;20259;-81
2022/03/23 05:45:47;;;;;;;136.37;61.53;;;2.80;99.90;;;;;;10165111;29;20231;-80
2022/03/23 05:51:09;;;;;;;147.07;61.57;;;3.00;99.90;;;;;;10152192;29;20215;-81
2022/03/23 05:56:31;;;;;;;150.30;67.90;;;3.20;99.90;;;;;;10158339;29;20228;-81
2022/03/23 06:01:53;;;;;;;160.93;72.10;;;3.40;99.90;;;;;;10166382;29;20205;-81
2022/03/23 06:07:15;;;;;;;169.47;73.20;;;3.50;99.90;;;;;;10165154;29;20268;-83
2022/03/23 06:12:38;;;;;;;167.83;77.37;;;3.70;99.90;;;;;;10171199;29;20244;-82
2022/03/23 06:18:00;;;;;;;151.00;70.43;;;3.90;99.90;;;;;;10172371;29;20239;-83
2022/03/23 06:23:22;;;;;;;138.73;65.40;;;4.10;99.90;;;;;;10174937;29;20208;-82
2022/03/23 06:28:52;;;;;;;128.27;59.73;;;4.30;99.90;;;;;;10160535;29;20272;-83
2022/03/23 06:34:15;;;;;;;118.53;55.53;;;4.50;99.90;;;;;;10227220;29;20205;-82
2022/03/23 06:39:36;;;;;;;123.47;54.27;;;4.80;99.90;;;;;;10197253;29;20284;-83
2022/03/23 06:44:59;;;;;;;113.03;53.30;;;5.10;99.90;;;;;;10210446;29;20252;-83
2022/03/23 06:50:25;;;;;;;121.03;56.00;;;5.50;99.90;;;;;;10197162;29;20221;-83
2022/03/23 06:55:53;;;;;;;97.73;50.00;;;5.90;99.90;;;;;;10207040;29;20296;-83
2022/03/23 07:01:15;;;;;;;89.97;46.30;;;6.50;99.90;;;;;;10181975;29;20235;-83
2022/03/23 07:06:37;;;;;;;83.20;39.30;;;8.00;99.90;;;;;;10170580;29;20211;-83
2022/03/23 07:12:01;;;;;;;67.68;34.97;;;9.20;67.90;;;;;;10156921;29;20389;-83
2022/03/23 07:17:23;;;;;;;32.63;22.42;;;11.80;42.80;;;;;;10169975;29;20247;-83
2022/03/23 07:22:45;;;;;;;40.00;24.63;;;;;;;;;;10156851;29;20506;-83
2022/03/23 07:28:07;;;;;;;32.88;20.50;;;15.10;24.70;;;;;;10169485;29;20216;-83
2022/03/23 07:33:29;;;;;;;33.28;20.92;;;15.70;22.50;;;;;;10171270;29;20285;-84
2022/03/23 07:38:52;;;;;;;32.10;19.00;;;16.70;19.80;;;;;;10168884;29;20240;-83
2022/03/23 07:44:19;;;;;;;27.90;16.98;;;17.40;17.70;;;;;;10168755;29;20208;-83
2022/03/23 07:49:41;;;;;;;99.40;24.98;;;18.30;16.50;;;;;;10168306;29;20212;-82
2022/03/23 07:55:04;;;;;;;54.70;23.13;;;19.10;14.50;;;;;;10183909;29;20258;-81
2022/03/23 08:00:27;;;;;;;25.25;15.55;;;19.70;12.90;;;;;;10198384;29;20287;-82
2022/03/23 08:05:49;;;;;;;26.63;16.20;;;20.10;12.10;;;;;;10168094;29;20208;-82
2022/03/23 08:11:11;;;;;;;23.45;15.88;;;20.20;10.50;;;;;;10167390;29;20208;-82
2022/03/23 08:16:33;;;;;;;44.55;23.90;;;20.00;10.70;;;;;;10167235;29;20216;-82
2022/03/23 08:21:56;;;;;;;48.03;26.33;;;20.60;10.70;;;;;;10167072;29;20213;-82
2022/03/23 08:27:19;;;;;;;32.38;19.05;;;21.20;9.90;;;;;;10182804;29;20209;-82
2022/03/23 08:38:44;;;;;;;43.65;23.83;;;21.80;8.60;;;;;;10049950;29;20253;-80
2022/03/23 08:44:06;;;;;;;30.13;16.58;;;22.20;8.20;;;;;;10097350;29;20212;-81
2022/03/23 08:49:28;;;;;;;34.38;18.48;;;22.60;7.10;;;;;;10112676;29;20262;-80
2022/03/23 08:54:51;;;;;;;21.83;16.13;;;23.00;7.00;;;;;;10134387;29;20213;-79
2022/03/23 09:00:13;;;;;;;22.33;15.60;;;23.20;6.80;;;;;;10109392;29;20292;-78
2022/03/23 09:05:35;;;;;;;26.85;16.23;;;22.70;7.40;;;;;;10084600;29;20202;-80
2022/03/23 09:10:57;;;;;;;22.50;14.48;;;22.70;7.10;;;;;;10115564;29;20769;-77
2022/03/23 09:16:19;;;;;;;26.50;16.08;;;23.30;6.10;;;;;;10113061;29;20231;-80
2022/03/23 09:21:41;;;;;;;21.13;11.48;;;23.30;5.40;;;;;;10130897;29;20463;-79
2022/03/23 09:27:03;;;;;;;28.38;13.32;;;23.20;3.90;;;;;;10151476;29;20205;-79
2022/03/23 09:32:25;;;;;;;18.55;10.00;;;23.10;4.60;;;;;;10147253;29;20213;-78
2022/03/23 09:37:47;;;;;;;19.10;10.18;;;23.40;3.70;;;;;;10106678;29;20253;-80
2022/03/23 09:43:11;;;;;;;12.48;8.95;;;23.40;3.80;;;;;;10113333;29;20258;-78
2022/03/23 09:48:34;;;;;;;16.08;10.95;;;23.70;3.30;;;;;;10141527;29;20244;-78
2022/03/23 09:53:57;;;;;;;15.98;11.00;;;24.40;3.00;;;;;;10158112;29;20205;-78
2022/03/23 09:59:19;;;;;;;24.15;13.57;;;24.20;2.90;;;;;;10125567;29;20257;-78
2022/03/23 10:05:09;;;;;;;12.80;8.93;;;24.30;2.60;;;;;;10156127;29;20236;-79
2022/03/23 10:11:09;;;;;;;35.47;18.00;;;24.10;2.30;;;;;;10101851;29;20447;-79
2022/03/23 10:16:51;;;;;;;14.05;9.35;;;24.30;1.70;;;;;;10111910;29;20244;-80
2022/03/23 10:22:14;;;;;;;30.23;17.25;;;23.80;1.70;;;;;;10119901;29;20205;-78
2022/03/23 10:27:36;;;;;;;19.15;9.57;;;24.40;1.70;;;;;;10117826;29;20455;-77
2022/03/23 10:32:58;;;;;;;26.55;16.88;;;24.50;2.40;;;;;;10156307;29;20237;-75
2022/03/23 10:38:23;;;;;;;23.40;12.35;;;24.50;2.00;;;;;;10079724;29;20317;-78
2022/03/23 10:43:44;;;;;;;14.25;10.55;;;24.20;2.60;;;;;;10082276;29;20215;-78
2022/03/23 10:49:07;;;;;;;20.90;11.43;;;24.80;2.60;;;;;;10121125;29;20213;-78
2022/03/23 10:54:29;;;;;;;24.35;13.45;;;24.80;2.80;;;;;;10110939;29;20216;-79
2022/03/23 10:59:51;;;;;;;23.73;13.25;;;25.20;3.40;;;;;;10116755;29;20245;-79
2022/03/23 11:05:34;;;;;;;20.67;13.55;;;25.30;3.60;;;;;;10124034;29;20212;-77
2022/03/23 11:16:48;;;;;;;20.33;15.10;;;25.50;4.80;;;;;;10115796;29;20213;-77
2022/03/23 11:22:17;;;;;;;19.13;14.18;;;25.00;3.90;;;;;;10134365;29;20774;-78
2022/03/23 11:27:41;;;;;;;26.52;17.77;;;24.50;5.10;;;;;;10136136;29;20523;-79
2022/03/23 11:33:07;;;;;;;18.75;15.23;;;24.60;4.50;;;;;;10089581;29;20236;-78
2022/03/23 11:38:30;;;;;;;27.40;16.77;;;24.40;4.60;;;;;;10072980;29;20238;-78
2022/03/23 11:43:52;;;;;;;23.27;14.00;;;24.10;5.10;;;;;;10078147;29;20217;-78
2022/03/23 11:49:14;;;;;;;17.48;12.32;;;24.30;4.80;;;;;;10098194;29;20245;-76
2022/03/23 12:00:41;;;;;;;23.88;11.88;;;24.80;4.70;;;;;;10112437;29;20281;-77
2022/03/23 12:06:12;;;;;;;22.48;13.70;;;24.30;4.80;;;;;;10113413;29;20406;-77
2022/03/23 12:11:43;;;;;;;28.95;18.00;;;24.60;5.70;;;;;;10114102;29;20568;-78
2022/03/23 12:17:09;;;;;;;25.60;15.20;;;24.50;5.20;;;;;;10112015;29;20583;-78
2022/03/23 12:22:52;;;;;;;37.63;20.05;;;24.10;5.80;;;;;;10103827;29;20221;-78
2022/03/23 12:28:18;;;;;;;26.42;17.02;;;23.70;6.30;;;;;;10120369;29;20237;-78
2022/03/23 12:34:18;;;;;;;32.55;17.58;;;23.60;6.90;;;;;;10138628;29;20205;-78
2022/03/23 12:39:46;;;;;;;26.88;16.30;;;23.50;8.00;;;;;;10062256;29;20431;-79
2022/03/23 12:45:13;;;;;;;24.58;15.88;;;23.80;7.80;;;;;;10074942;29;20285;-78
2022/03/23 13:02:30;;;;;;;34.20;21.05;;;22.50;9.10;;;;;;10070965;29;20437;-78
2022/03/23 13:07:52;;;;;;;25.33;16.77;;;21.50;9.80;;;;;;10032092;29;20413;-80
2022/03/23 13:13:18;;;;;;;43.25;24.30;;;21.10;11.00;;;;;;10024544;29;20221;-78
2022/03/23 13:18:41;;;;;;;31.45;20.63;;;21.00;11.30;;;;;;10060552;29;20279;-78
2022/03/23 13:24:06;;;;;;;45.53;27.17;;;20.80;11.40;;;;;;10083258;29;20218;-79
2022/03/23 13:29:28;;;;;;;40.47;26.42;;;21.00;10.50;;;;;;10084453;29;20245;-75
2022/03/23 13:34:56;;;;;;;34.65;21.20;;;21.00;10.60;;;;;;10120056;29;20246;-77
2022/03/23 13:43:19;;;;;;;37.22;19.50;;;20.80;11.20;;;;;;10122524;29;20253;-78
2022/03/23 13:46:16;;;;;;;54.67;33.17;;;20.60;11.10;;;;;;10108501;29;20270;-78
2022/03/23 13:51:43;;;;;;;32.15;19.50;;;20.30;10.80;;;;;;10099609;29;20271;-77
2022/03/23 13:57:06;;;;;;;56.22;16.92;;;20.30;11.40;;;;;;10103976;29;20226;-75
2022/03/23 14:02:28;;;;;;;28.88;18.13;;;20.30;10.90;;;;;;10108480;29;20582;-76
2022/03/23 14:08:07;;;;;;;25.67;15.88;;;20.10;10.60;;;;;;10058753;29;20511;-78
2022/03/23 14:13:29;;;;;;;28.40;17.77;;;19.70;10.50;;;;;;10085344;29;20210;-78
2022/03/23 14:18:51;;;;;;;35.97;17.02;;;19.30;11.20;;;;;;10085609;29;20246;-78
2022/03/23 14:24:15;;;;;;;39.17;20.27;;;18.70;11.70;;;;;;10107182;29;20209;-77
2022/03/23 14:29:39;;;;;;;29.70;18.73;;;;;;;;;;10090283;29;20300;-77
2022/03/23 14:35:08;;;;;;;29.33;18.50;;;17.50;14.00;;;;;;10111472;29;20245;-80
2022/03/23 14:40:36;;;;;;;38.92;19.77;;;17.20;14.90;;;;;;10106756;29;20270;-78
2022/03/23 14:46:23;;;;;;;30.35;18.27;;;16.80;14.40;;;;;;10143076;29;20219;-76
2022/03/23 14:51:46;;;;;;;29.15;16.90;;;16.50;14.70;;;;;;10147463;29;20243;-78
2022/03/23 14:57:09;;;;;;;27.27;15.73;;;16.30;14.50;;;;;;10114763;29;20336;-76
2022/03/23 15:02:32;;;;;;;30.80;18.02;;;16.10;14.80;;;;;;10117532;29;20281;-78
2022/03/23 15:13:34;;;;;;;31.80;18.17;;;15.90;15.10;;;;;;10097036;29;20239;-77
2022/03/23 15:18:57;;;;;;;59.50;32.45;;;15.70;14.70;;;;;;10094400;29;20299;-77
2022/03/23 15:24:20;;;;;;;36.20;23.58;;;15.70;14.60;;;;;;10100524;29;20225;-76
2022/03/23 15:29:42;;;;;;;28.98;19.75;;;15.80;15.30;;;;;;10134730;29;20406;-78
2022/03/23 15:35:05;;;;;;;32.03;20.08;;;15.80;15.60;;;;;;10130214;29;20296;-76
2022/03/23 15:40:27;;;;;;;32.58;19.45;;;15.40;16.40;;;;;;10115805;29;20732;-79
2022/03/23 15:45:49;;;;;;;34.92;20.30;;;15.10;17.00;;;;;;10075151;29;20255;-77
2022/03/23 15:51:13;;;;;;;29.83;18.50;;;14.80;17.30;;;;;;10097878;29;20456;-78
2022/03/23 15:56:36;;;;;;;34.60;20.88;;;14.60;17.50;;;;;;10109192;29;20574;-81
2022/03/23 16:01:58;;;;;;;33.85;20.48;;;14.40;17.60;;;;;;10139460;29;20446;-77
2022/03/23 16:07:20;;;;;;;33.78;22.13;;;14.30;17.70;;;;;;10136319;29;20228;-77
2022/03/23 16:12:43;;;;;;;38.90;25.93;;;14.20;18.00;;;;;;10144067;29;20448;-77
2022/03/23 16:18:05;;;;;;;38.22;22.60;;;13.90;18.60;;;;;;10122818;29;20424;-77
2022/03/23 16:23:28;;;;;;;44.75;24.50;;;13.70;19.40;;;;;;10116515;29;20248;-77
2022/03/23 16:28:53;;;;;;;39.58;24.10;;;13.40;20.50;;;;;;10085264;29;20213;-76
2022/03/23 16:34:19;;;;;;;48.63;29.50;;;13.30;21.50;;;;;;10080482;29;20298;-75
2022/03/23 16:39:42;;;;;;;43.38;26.90;;;13.10;22.10;;;;;;10116877;29;20311;-78
2022/03/23 16:45:05;;;;;;;35.38;21.92;;;12.90;23.00;;;;;;10113409;29;20213;-77
2022/03/23 16:50:27;;;;;;;42.70;22.95;;;12.60;24.20;;;;;;10078727;29;20217;-76
2022/03/23 16:55:51;;;;;;;42.72;26.50;;;12.30;25.40;;;;;;10107658;29;20282;-76
2022/03/23 17:01:13;;;;;;;60.45;29.27;;;12.10;26.60;;;;;;10114269;29;20297;-77
2022/03/23 17:12:26;;;;;;;61.05;29.38;;;11.60;30.00;;;;;;10079670;29;20207;-78
2022/03/23 17:17:48;;;;;;;45.58;28.48;;;11.40;33.30;;;;;;10104498;29;20210;-77
2022/03/23 17:23:11;;;;;;;45.38;26.83;;;11.30;36.90;;;;;;10119189;29;20226;-80
2022/03/23 17:28:34;;;;;;;52.57;28.43;;;11.20;40.70;;;;;;10089915;29;20238;-77
2022/03/23 17:33:56;;;;;;;46.70;25.40;;;11.00;44.60;;;;;;10065738;29;20601;-78
2022/03/23 17:39:18;;;;;;;37.27;24.50;;;10.70;49.40;;;;;;10083218;29;20234;-80
2022/03/23 17:44:41;;;;;;;40.00;23.63;;;10.70;51.80;;;;;;10078874;29;20210;-78
2022/03/23 17:50:04;;;;;;;39.33;23.92;;;10.50;54.70;;;;;;10118486;29;20213;-77
2022/03/23 17:55:26;;;;;;;42.97;25.40;;;10.40;57.60;;;;;;10115092;29;20281;-78
2022/03/23 18:00:48;;;;;;;49.40;26.27;;;10.20;60.90;;;;;;10065889;29;20242;-78
2022/03/23 18:06:11;;;;;;;56.70;31.17;;;10.10;64.50;;;;;;10089757;29;20216;-77
2022/03/23 18:11:34;;;;;;;65.93;34.27;;;10.00;67.90;;;;;;10095876;29;20217;-79
2022/03/23 18:16:56;;;;;;;60.47;33.03;;;9.80;72.30;;;;;;10093999;29;20279;-79
2022/03/23 18:22:19;;;;;;;86.10;44.80;;;9.60;76.70;;;;;;10124392;29;20246;-79
2022/03/23 18:27:42;;;;;;;92.77;47.30;;;9.50;80.00;;;;;;10088260;29;20205;-79
2022/03/23 18:33:05;;;;;;;67.60;39.20;;;9.50;82.40;;;;;;10085327;29;20210;-78
2022/03/23 18:38:27;;;;;;;66.13;35.60;;;9.40;84.40;;;;;;10100724;29;20232;-78
2022/03/23 18:43:51;;;;;;;62.87;34.00;;;9.40;86.20;;;;;;10122516;29;20428;-78
2022/03/23 18:49:12;;;;;;;71.77;36.73;;;9.20;86.70;;;;;;10122895;29;20385;-77
2022/03/23 18:54:34;;;;;;;71.17;38.37;;;9.10;88.20;;;;;;10123039;29;20279;-78
2022/03/23 18:59:56;;;;;;;70.00;37.37;;;9.00;89.60;;;;;;10120987;29;20255;-76
2022/03/23 19:05:23;;;;;;;78.13;37.83;;;8.80;91.00;;;;;;10106239;29;20260;-77
2022/03/23 19:10:46;;;;;;;75.53;38.80;;;8.70;91.60;;;;;;10110846;29;20212;-77
2022/03/23 19:16:08;;;;;;;72.77;39.27;;;8.60;92.20;;;;;;10106790;29;20221;-77
2022/03/23 19:21:30;;;;;;;72.97;41.23;;;8.60;92.50;;;;;;10097948;29;20567;-78
2022/03/23 19:26:52;;;;;;;84.00;44.43;;;8.40;93.20;;;;;;10069493;29;20216;-77
2022/03/23 19:32:14;;;;;;;75.13;42.27;;;8.30;94.00;;;;;;10104153;29;20461;-79
2022/03/23 19:37:36;;;;;;;80.73;42.20;;;8.10;95.30;;;;;;10097240;29;20313;-76
2022/03/23 19:42:58;;;;;;;72.47;41.10;;;8.10;95.20;;;;;;10082938;29;20241;-77
2022/03/23 19:48:20;;;;;;;74.47;40.40;;;7.90;96.20;;;;;;10081513;29;20293;-77
2022/03/23 19:53:43;;;;;;;65.30;39.53;;;7.90;96.70;;;;;;10115198;29;20219;-77
2022/03/23 19:59:06;;;;;;;71.60;37.87;;;7.70;97.00;;;;;;10120575;29;20216;-77
2022/03/23 20:04:28;;;;;;;67.90;36.40;;;7.50;97.70;;;;;;10114569;29;20245;-77
2022/03/23 20:09:51;;;;;;;66.00;38.17;;;;;;;;;;10117744;29;20609;-77
2022/03/23 20:15:13;;;;;;;77.17;42.53;;;7.30;98.80;;;;;;10085047;29;20222;-76
2022/03/23 20:20:37;;;;;;;90.00;52.17;;;7.20;99.40;;;;;;10075474;29;20331;-78
2022/03/23 20:26:00;;;;;;;102.50;54.87;;;7.20;99.40;;;;;;10115221;29;20282;-77
2022/03/23 20:31:23;;;;;;;120.33;59.67;;;7.20;99.60;;;;;;10104082;29;20240;-77
2022/03/23 20:36:45;;;;;;;96.57;51.43;;;7.00;99.90;;;;;;10097933;29;20280;-77
2022/03/23 20:42:07;;;;;;;97.00;55.93;;;6.90;99.90;;;;;;10099004;29;20234;-77
2022/03/23 20:47:33;;;;;;;95.27;54.77;;;6.80;99.90;;;;;;10061109;29;20207;-77
2022/03/23 20:53:02;;;;;;;107.60;55.97;;;6.70;99.90;;;;;;10103285;29;20467;-77
2022/03/23 20:58:24;;;;;;;97.07;51.90;;;6.50;99.90;;;;;;10117702;29;20221;-77
2022/03/23 21:03:47;;;;;;;100.23;55.37;;;6.30;99.90;;;;;;10117976;29;20507;-77
2022/03/23 21:09:09;;;;;;;111.97;56.10;;;6.30;99.90;;;;;;10118163;29;20423;-78
2022/03/23 21:14:32;;;;;;;111.60;56.57;;;6.20;99.90;;;;;;10092974;29;20219;-78
2022/03/23 21:19:54;;;;;;;96.67;48.97;;;6.10;99.90;;;;;;10130254;29;20291;-77
2022/03/23 21:25:17;;;;;;;67.50;38.97;;;6.00;99.90;;;;;;10106319;29;20208;-77
2022/03/23 21:30:43;;;;;;;57.10;35.97;;;6.00;99.90;;;;;;10077406;29;20316;-76
2022/03/23 21:36:05;;;;;;;62.93;36.43;;;5.90;99.90;;;;;;10092100;29;20306;-77
2022/03/23 21:41:27;;;;;;;62.33;34.07;;;5.80;99.90;;;;;;10089444;29;20213;-78
2022/03/23 21:46:49;;;;;;;71.50;38.33;;;5.70;99.90;;;;;;10073432;29;20256;-78
2022/03/23 21:52:12;;;;;;;133.73;64.73;;;5.70;99.90;;;;;;10085892;29;20237;-77
2022/03/23 21:57:36;;;;;;;168.50;82.17;;;5.70;99.90;;;;;;10086311;29;20210;-77
2022/03/23 22:02:58;;;;;;;157.67;79.00;;;5.50;99.90;;;;;;10086785;29;20231;-76
2022/03/23 22:08:20;;;;;;;118.60;62.37;;;5.30;99.90;;;;;;10090266;29;20216;-76
2022/03/23 22:13:43;;;;;;;84.60;46.53;;;5.20;99.90;;;;;;10117745;29;20222;-77
2022/03/23 22:19:08;;;;;;;80.33;42.93;;;5.20;99.90;;;;;;10136330;29;20279;-77
2022/03/23 22:24:31;;;;;;;84.83;45.27;;;5.10;99.90;;;;;;10162827;29;20509;-77
2022/03/23 22:29:53;;;;;;;102.80;50.70;;;5.10;99.90;;;;;;10121286;29;20228;-77
2022/03/23 22:35:15;;;;;;;103.60;50.97;;;5.00;99.90;;;;;;10091261;29;20262;-77
2022/03/23 22:40:38;;;;;;;106.03;52.73;;;4.80;99.90;;;;;;10097007;29;20311;-77
2022/03/23 22:46:03;;;;;;;102.77;53.23;;;4.60;99.90;;;;;;10084956;29;20201;-78
2022/03/23 22:51:25;;;;;;;100.60;53.67;;;4.40;99.90;;;;;;10115038;29;20231;-77
2022/03/23 22:56:47;;;;;;;105.17;54.23;;;4.50;99.90;;;;;;10122803;29;20580;-77
2022/03/23 23:02:09;;;;;;;145.60;67.53;;;4.50;99.90;;;;;;10121212;29;20465;-77
2022/03/23 23:07:31;;;;;;;146.43;64.30;;;4.40;99.90;;;;;;10121153;29;20220;-77
2022/03/23 23:12:53;;;;;;;127.00;59.33;;;4.30;99.90;;;;;;10121550;29;20239;-78
2022/03/23 23:18:16;;;;;;;127.80;60.63;;;4.30;99.90;;;;;;10097047;29;20202;-77
2022/03/23 23:23:38;;;;;;;123.00;59.03;;;4.10;99.90;;;;;;10143684;29;20273;-77
2022/03/23 23:29:13;;;;;;;123.03;59.07;;;4.10;99.90;;;;;;10112469;29;20208;-78
2022/03/23 23:34:36;;;;;;;133.23;61.50;;;4.00;99.90;;;;;;10082836;29;20547;-78
2022/03/23 23:39:59;;;;;;;116.10;60.87;;;3.80;99.90;;;;;;10069255;29;20247;-78
2022/03/23 23:45:21;;;;;;;132.40;63.67;;;3.70;99.90;;;;;;10083761;29;20242;-77
2022/03/23 23:50:43;;;;;;;107.93;57.70;;;3.60;99.90;;;;;;10116431;29;20238;-77
2022/03/23 23:56:05;;;;;;;99.50;51.97;;;3.60;99.90;;;;;;10120890;29;20217;-76
